createdAt,value
2023-02-25T00:01:35.809Z,8.75
2023-02-25T00:04:02.655Z,18.42
2023-02-25T00:06:29.406Z,8.82
2023-02-25T00:08:56.127Z,5.10
2023-02-25T00:11:25.857Z,5.70
2023-02-25T00:13:53.123Z,9.20
2023-02-25T00:16:22.590Z,15.82
2023-02-25T00:18:54.414Z,6.65
2023-02-25T00:21:21.061Z,10.27
2023-02-25T00:23:49.411Z,8.90
2023-02-25T00:26:17.317Z,19.63
2023-02-25T00:28:44.610Z,11.55
2023-02-25T00:31:16.942Z,19.98
2023-02-25T00:33:43.928Z,9.93
2023-02-25T00:36:13.330Z,7.30
2023-02-25T00:38:40.446Z,12.95
2023-02-25T00:41:12.701Z,9.90
2023-02-25T00:43:44.545Z,12.60
2023-02-25T00:46:12.423Z,11.38
2023-02-25T00:48:39.767Z,9.52
2023-02-25T00:51:12.462Z,14.48
2023-02-25T00:53:39.726Z,13.77
2023-02-25T00:56:08.510Z,19.60
2023-02-25T00:58:36.668Z,17.23
2023-02-25T01:01:05.631Z,12.38
2023-02-25T01:03:33.120Z,11.23
2023-02-25T01:05:59.910Z,5.65
2023-02-25T01:08:26.687Z,9.30
2023-02-25T01:10:53.724Z,12.02
2023-02-25T01:13:20.358Z,17.40
2023-02-25T01:15:47.244Z,19.27
2023-02-25T01:18:13.963Z,12.93
2023-02-25T01:20:40.950Z,10.00
2023-02-25T01:23:07.789Z,13.05
2023-02-25T01:25:34.740Z,11.32
2023-02-25T01:28:01.391Z,7.28
2023-02-25T01:30:28.127Z,13.35
2023-02-25T01:32:54.924Z,12.45
2023-02-25T01:35:21.689Z,11.23
2023-02-25T01:37:50.904Z,5.60
2023-02-25T01:40:18.220Z,8.95
2023-02-25T01:42:46.202Z,7.53
2023-02-25T01:45:21.889Z,8.25
2023-02-25T01:47:59.032Z,11.55
2023-02-25T01:50:30.374Z,8.43
2023-02-25T01:53:00.232Z,11.88
2023-02-25T01:55:27.045Z,12.55
2023-02-25T01:57:53.824Z,11.50
2023-02-25T02:00:20.845Z,10.73
2023-02-25T02:02:50.998Z,11.15
2023-02-25T02:05:17.888Z,7.78
2023-02-25T02:07:44.636Z,10.85
2023-02-25T02:10:11.724Z,8.30
2023-02-25T02:12:44.782Z,15.30
2023-02-25T02:15:14.169Z,10.45
2023-02-25T02:17:41.856Z,8.43
2023-02-25T02:20:26.452Z,12.75
2023-02-25T02:23:24.885Z,12.43
2023-02-25T02:26:24.576Z,14.32
2023-02-25T02:29:17.432Z,10.70
2023-02-25T02:31:57.625Z,9.55
2023-02-25T02:34:26.428Z,13.93
2023-02-25T02:37:26.736Z,12.73
2023-02-25T02:40:05.633Z,9.80
2023-02-25T02:43:02.090Z,14.80
2023-02-25T02:45:45.135Z,12.77
2023-02-25T02:48:22.371Z,17.35
2023-02-25T02:50:57.137Z,11.27
2023-02-25T02:53:41.386Z,13.27
2023-02-25T02:56:12.178Z,7.88
2023-02-25T02:58:47.049Z,18.15
2023-02-25T03:01:27.860Z,15.82
2023-02-25T03:04:07.775Z,8.50
2023-02-25T03:06:42.431Z,22.38
2023-02-25T03:09:28.024Z,12.50
2023-02-25T03:11:55.396Z,14.07
2023-02-25T03:14:22.873Z,13.18
2023-02-25T03:16:57.615Z,9.00
2023-02-25T03:19:43.588Z,9.35
2023-02-25T03:22:16.696Z,17.38
2023-02-25T03:25:36.678Z,13.10
2023-02-25T03:28:16.001Z,17.00
2023-02-25T03:31:01.434Z,9.48
2023-02-25T03:33:47.699Z,14.00
2023-02-25T03:36:34.542Z,10.30
2023-02-25T03:39:08.844Z,10.60
2023-02-25T03:41:40.691Z,15.73
2023-02-25T03:44:12.684Z,7.13
2023-02-25T03:46:43.074Z,10.10
2023-02-25T03:49:12.728Z,13.43
2023-02-25T03:51:41.458Z,16.10
2023-02-25T03:54:08.256Z,13.25
2023-02-25T03:56:51.220Z,10.38
2023-02-25T03:59:19.327Z,14.38
2023-02-25T04:01:50.184Z,11.10
2023-02-25T04:04:17.145Z,10.90
2023-02-25T04:06:43.810Z,11.95
2023-02-25T04:09:10.548Z,13.75
2023-02-25T04:11:37.254Z,13.45
2023-02-25T04:14:03.978Z,13.75
2023-02-25T04:16:31.256Z,12.93
2023-02-25T04:18:59.890Z,11.90
2023-02-25T04:21:35.603Z,11.18
2023-02-25T04:24:05.529Z,17.70
2023-02-25T04:26:33.071Z,14.63
2023-02-25T04:28:59.699Z,6.65
2023-02-25T04:31:26.657Z,14.93
2023-02-25T04:33:53.430Z,13.57
2023-02-25T04:36:23.318Z,10.43
2023-02-25T04:38:50.137Z,12.02
2023-02-25T04:41:16.751Z,7.53
2023-02-25T04:43:45.313Z,12.10
2023-02-25T04:46:13.354Z,13.65
2023-02-25T04:48:40.504Z,9.95
2023-02-25T04:51:08.302Z,13.65
2023-02-25T04:53:35.886Z,9.57
2023-02-25T04:56:06.749Z,16.40
2023-02-25T04:58:34.661Z,19.35
2023-02-25T05:01:03.426Z,14.75
2023-02-25T05:03:30.233Z,15.32
2023-02-25T05:05:57.007Z,8.07
2023-02-25T05:08:24.062Z,17.00
2023-02-25T05:10:51.105Z,8.23
2023-02-25T05:13:19.027Z,20.92
2023-02-25T05:15:46.030Z,13.60
2023-02-25T05:18:12.785Z,19.67
2023-02-25T05:20:44.436Z,13.40
2023-02-25T05:23:11.756Z,14.70
2023-02-25T05:25:41.587Z,12.30
2023-02-25T05:28:10.540Z,16.83
2023-02-25T05:30:38.835Z,12.90
2023-02-25T05:33:06.982Z,18.88
2023-02-25T05:35:33.646Z,11.60
2023-02-25T05:38:00.748Z,12.15
2023-02-25T05:40:27.532Z,12.88
2023-02-25T05:42:54.234Z,10.57
2023-02-25T05:45:21.035Z,19.30
2023-02-25T05:47:47.918Z,16.27
2023-02-25T05:50:14.773Z,15.27
2023-02-25T05:52:42.030Z,16.15
2023-02-25T05:55:09.486Z,13.27
2023-02-25T05:57:36.392Z,13.68
2023-02-25T06:00:09.043Z,15.80
2023-02-25T06:02:39.127Z,18.05
2023-02-25T06:05:06.569Z,9.77
2023-02-25T06:07:33.770Z,16.10
2023-02-25T06:10:01.035Z,14.88
2023-02-25T06:12:32.898Z,15.15
2023-02-25T06:15:00.150Z,19.08
2023-02-25T06:17:26.828Z,16.73
2023-02-25T06:19:54.038Z,14.70
2023-02-25T06:22:22.003Z,11.43
2023-02-25T06:24:49.134Z,16.92
2023-02-25T06:27:16.337Z,9.48
2023-02-25T06:29:43.003Z,15.55
2023-02-25T06:32:11.129Z,10.88
2023-02-25T06:34:38.913Z,15.50
2023-02-25T06:37:06.211Z,15.77
2023-02-25T06:39:33.247Z,20.52
2023-02-25T06:42:00.098Z,14.88
2023-02-25T06:44:30.675Z,10.65
2023-02-25T06:46:57.311Z,12.68
2023-02-25T06:49:24.554Z,12.27
2023-02-25T06:51:51.210Z,13.80
2023-02-25T06:54:18.769Z,12.57
2023-02-25T06:56:45.756Z,19.52
2023-02-25T06:59:12.659Z,19.60
2023-02-25T07:01:39.383Z,10.70
2023-02-25T07:04:06.140Z,8.68
2023-02-25T07:06:32.953Z,2.90
2023-02-25T07:08:59.669Z,2.13
2023-02-25T07:11:30.589Z,7.60
2023-02-25T07:13:57.819Z,13.40
2023-02-25T07:16:25.156Z,4.05
2023-02-25T07:18:52.089Z,6.28
2023-02-25T07:21:19.034Z,6.68
2023-02-25T07:23:46.510Z,8.85
2023-02-25T07:26:14.819Z,10.02
2023-02-25T07:28:42.964Z,7.40
2023-02-25T07:31:17.186Z,10.30
2023-02-25T07:33:44.473Z,6.80
2023-02-25T07:36:12.805Z,4.85
2023-02-25T07:38:39.922Z,11.35
2023-02-25T07:41:08.990Z,8.45
2023-02-25T07:43:35.743Z,13.82
2023-02-25T07:46:03.112Z,12.18
2023-02-25T07:48:29.827Z,5.15
2023-02-25T07:50:56.891Z,9.45
2023-02-25T07:53:23.585Z,6.90
2023-02-25T07:55:50.701Z,5.70
2023-02-25T07:58:17.396Z,7.40
2023-02-25T08:00:46.225Z,5.95
2023-02-25T08:03:13.056Z,6.15
2023-02-25T08:05:39.956Z,6.47
2023-02-25T08:08:06.890Z,5.60
2023-02-25T08:10:33.761Z,10.32
2023-02-25T08:13:00.447Z,4.60
2023-02-25T08:15:27.144Z,4.40
2023-02-25T08:17:55.690Z,5.05
2023-02-25T08:20:22.377Z,5.82
2023-02-25T08:22:49.076Z,6.32
2023-02-25T08:25:15.803Z,5.25
2023-02-25T08:27:43.973Z,5.38
2023-02-25T08:30:11.447Z,4.55
2023-02-25T08:32:38.571Z,3.63
2023-02-25T08:35:05.558Z,4.03
2023-02-25T08:37:33.225Z,4.00
2023-02-25T08:39:59.871Z,5.60
2023-02-25T08:42:26.561Z,2.50
2023-02-25T08:44:53.290Z,5.85
2023-02-25T08:47:20.204Z,6.43
2023-02-25T08:49:47.564Z,6.03
2023-02-25T08:52:14.557Z,4.10
2023-02-25T08:54:41.433Z,6.78
2023-02-25T08:57:08.304Z,6.13
2023-02-25T08:59:37.645Z,6.82
2023-02-25T09:02:06.235Z,3.88
2023-02-25T09:04:34.261Z,5.25
2023-02-25T09:07:02.726Z,2.75
2023-02-25T09:09:29.698Z,4.43
2023-02-25T09:11:56.675Z,3.80
2023-02-25T09:14:23.364Z,14.38
2023-02-25T09:16:50.193Z,4.20
2023-02-25T09:19:18.320Z,8.07
2023-02-25T09:21:48.004Z,6.07
2023-02-25T09:24:15.449Z,5.78
2023-02-25T09:26:42.201Z,3.08
2023-02-25T09:29:08.926Z,4.50
2023-02-25T09:31:37.422Z,2.67
2023-02-25T09:34:07.336Z,5.32
2023-02-25T09:36:34.041Z,4.85
2023-02-25T09:39:00.733Z,7.03
2023-02-25T09:41:39.346Z,5.28
2023-02-25T09:44:31.371Z,4.80
2023-02-25T09:47:06.823Z,4.97
2023-02-25T09:50:00.404Z,5.25
2023-02-25T09:52:43.215Z,3.83
2023-02-25T09:55:30.736Z,5.63
2023-02-25T09:58:28.494Z,6.35
2023-02-25T10:01:10.872Z,8.90
2023-02-25T10:04:08.254Z,7.03
2023-02-25T10:06:39.417Z,3.33
2023-02-25T10:09:18.147Z,9.93
2023-02-25T10:12:05.402Z,6.60
2023-02-25T10:14:38.071Z,5.80
2023-02-25T10:17:43.303Z,5.40
2023-02-25T10:20:35.042Z,7.65
2023-02-25T10:23:28.110Z,8.20
2023-02-25T10:26:10.251Z,8.02
2023-02-25T10:28:41.018Z,3.03
2023-02-25T10:31:18.654Z,6.25
2023-02-25T10:33:47.989Z,8.18
2023-02-25T10:36:14.662Z,4.60
2023-02-25T10:38:49.864Z,6.43
2023-02-25T10:41:17.032Z,6.55
2023-02-25T10:43:45.367Z,10.68
2023-02-25T10:46:26.808Z,8.35
2023-02-25T10:48:58.515Z,5.38
2023-02-25T10:51:27.377Z,6.32
2023-02-25T10:53:56.998Z,6.13
2023-02-25T10:56:45.162Z,4.32
2023-02-25T10:59:35.362Z,6.30
2023-02-25T11:02:03.095Z,5.70
2023-02-25T11:04:37.461Z,5.38
2023-02-25T11:07:24.582Z,5.60
2023-02-25T11:10:06.399Z,7.28
2023-02-25T11:12:41.685Z,6.20
2023-02-25T11:15:43.078Z,9.15
2023-02-25T11:18:26.521Z,8.48
2023-02-25T11:20:59.408Z,8.25
2023-02-25T11:23:45.330Z,4.53
2023-02-25T11:26:32.807Z,7.15
2023-02-25T11:29:09.979Z,6.43
2023-02-25T11:31:42.725Z,3.05
2023-02-25T11:34:24.839Z,4.82
2023-02-25T11:36:52.683Z,6.38
2023-02-25T11:39:25.211Z,4.25
2023-02-25T11:42:02.427Z,3.95
2023-02-25T11:44:39.794Z,8.10
2023-02-25T11:47:18.218Z,4.75
2023-02-25T11:50:06.729Z,3.30
2023-02-25T11:52:45.101Z,3.83
2023-02-25T11:55:44.710Z,1.45
2023-02-25T11:58:17.059Z,2.30
2023-02-25T12:01:12.143Z,2.15
2023-02-25T12:03:51.160Z,1.27
2023-02-25T12:06:22.554Z,3.13
2023-02-25T12:09:07.651Z,2.28
2023-02-25T12:12:20.537Z,2.15
2023-02-25T12:15:21.163Z,0.77
2023-02-25T12:18:07.295Z,2.40
2023-02-25T12:20:50.120Z,3.53
2023-02-25T12:23:36.233Z,2.95
2023-02-25T12:26:13.092Z,3.47
2023-02-25T12:29:04.087Z,1.15
2023-02-25T12:32:02.207Z,3.03
2023-02-25T12:34:56.946Z,5.20
2023-02-25T12:37:45.250Z,1.63
2023-02-25T12:40:40.424Z,3.80
2023-02-25T12:43:14.576Z,2.58
2023-02-25T12:45:57.570Z,1.80
2023-02-25T12:48:40.252Z,0.63
2023-02-25T12:51:25.711Z,4.50
2023-02-25T12:54:19.806Z,3.45
2023-02-25T12:57:10.926Z,8.02
2023-02-25T12:59:55.715Z,4.05
2023-02-25T13:03:00.015Z,5.72
2023-02-25T13:05:44.696Z,4.75
2023-02-25T13:08:44.437Z,1.67
2023-02-25T13:12:10.543Z,2.70
2023-02-25T13:15:14.713Z,1.63
2023-02-25T13:18:03.813Z,1.65
2023-02-25T13:20:36.818Z,3.08
2023-02-25T13:23:25.337Z,2.30
2023-02-25T13:26:29.890Z,4.38
2023-02-25T13:29:27.307Z,3.75
2023-02-25T13:32:14.236Z,6.53
2023-02-25T13:35:01.099Z,4.72
2023-02-25T13:37:46.267Z,6.20
2023-02-25T13:40:35.994Z,2.53
2023-02-25T13:43:12.561Z,5.85
2023-02-25T13:46:00.104Z,3.10
2023-02-25T13:48:55.544Z,5.47
2023-02-25T13:51:52.679Z,4.53
2023-02-25T13:54:37.117Z,3.10
2023-02-25T13:57:41.007Z,2.75
2023-02-25T14:00:38.974Z,1.73
2023-02-25T14:03:42.709Z,2.08
2023-02-25T14:06:44.432Z,5.63
2023-02-25T14:09:19.936Z,2.35
2023-02-25T14:12:13.158Z,7.88
2023-02-25T14:15:04.838Z,2.35
2023-02-25T14:17:52.892Z,3.85
2023-02-25T14:20:39.184Z,1.85
2023-02-25T14:23:15.968Z,4.97
2023-02-25T14:25:53.977Z,3.58
2023-02-25T14:28:48.929Z,1.10
2023-02-25T14:31:51.930Z,2.08
2023-02-25T14:34:28.909Z,5.35
2023-02-25T14:37:13.421Z,2.65
2023-02-25T14:40:07.984Z,4.53
2023-02-25T14:42:53.804Z,1.20
2023-02-25T14:45:28.144Z,6.57
2023-02-25T14:47:59.908Z,2.25
2023-02-25T14:50:42.069Z,3.60
2023-02-25T14:53:30.866Z,8.90
2023-02-25T14:56:26.195Z,4.97
2023-02-25T14:59:23.775Z,4.68
2023-02-25T15:02:32.271Z,2.22
2023-02-25T15:05:05.316Z,4.07
2023-02-25T15:07:38.006Z,11.10
2023-02-25T15:10:53.084Z,5.50
2023-02-25T15:13:29.327Z,3.78
2023-02-25T15:16:24.075Z,1.48
2023-02-25T15:19:12.340Z,3.35
2023-02-25T15:21:46.382Z,4.15
2023-02-25T15:24:39.309Z,2.80
2023-02-25T15:27:32.825Z,4.03
2023-02-25T15:30:01.984Z,5.47
2023-02-25T15:32:45.213Z,5.00
2023-02-25T15:35:15.320Z,3.35
2023-02-25T15:37:51.015Z,4.82
2023-02-25T15:40:18.886Z,1.42
2023-02-25T15:42:53.961Z,1.60
2023-02-25T15:45:27.324Z,3.47
2023-02-25T15:48:17.447Z,2.40
2023-02-25T15:50:44.131Z,3.90
2023-02-25T15:53:31.792Z,2.78
2023-02-25T15:56:04.257Z,3.88
2023-02-25T15:58:30.836Z,3.78
2023-02-25T16:00:59.480Z,4.25
2023-02-25T16:03:36.672Z,3.25
2023-02-25T16:06:32.092Z,3.38
2023-02-25T16:09:08.696Z,2.15
2023-02-25T16:11:46.424Z,2.10
2023-02-25T16:14:29.616Z,3.00
2023-02-25T16:17:14.865Z,4.93
2023-02-25T16:19:42.501Z,5.10
2023-02-25T16:22:14.508Z,3.15
2023-02-25T16:24:46.471Z,3.63
2023-02-25T16:27:34.220Z,4.13
2023-02-25T16:30:21.032Z,20.83
2023-02-25T16:33:04.719Z,11.48
2023-02-25T16:35:40.743Z,28.00
2023-02-25T16:38:25.040Z,6.55
2023-02-25T16:40:52.301Z,6.25
2023-02-25T16:43:27.236Z,5.28
2023-02-25T16:45:58.275Z,6.43
2023-02-25T16:48:38.958Z,4.22
2023-02-25T16:51:25.583Z,5.57
2023-02-25T16:54:10.117Z,9.00
2023-02-25T16:56:37.072Z,5.45
2023-02-25T16:59:15.862Z,4.30
2023-02-25T17:01:57.231Z,5.50
2023-02-25T17:04:37.687Z,5.47
2023-02-25T17:07:07.383Z,4.68
2023-02-25T17:09:35.014Z,7.13
2023-02-25T17:12:03.535Z,6.10
2023-02-25T17:14:31.461Z,9.15
2023-02-25T17:16:58.988Z,14.60
2023-02-25T17:19:26.646Z,8.35
2023-02-25T17:21:58.820Z,3.40
2023-02-25T17:24:32.378Z,7.63
2023-02-25T17:27:00.816Z,6.32
2023-02-25T17:29:35.767Z,5.88
2023-02-25T17:32:22.478Z,6.13
2023-02-25T17:34:52.388Z,3.90
2023-02-25T17:37:20.916Z,5.40
2023-02-25T17:39:48.005Z,9.00
2023-02-25T17:42:35.574Z,3.83
2023-02-25T17:45:04.878Z,4.03
2023-02-25T17:47:34.390Z,10.00
2023-02-25T17:50:29.880Z,6.30
2023-02-25T17:52:58.291Z,5.22
2023-02-25T17:55:34.074Z,7.80
2023-02-25T17:58:01.978Z,14.10
2023-02-25T18:00:35.953Z,54.75
2023-02-25T18:03:24.490Z,31.30
2023-02-25T18:05:55.585Z,17.42
2023-02-25T18:08:26.782Z,14.38
2023-02-25T18:11:12.834Z,8.77
2023-02-25T18:13:39.630Z,5.25
2023-02-25T18:16:31.088Z,9.18
2023-02-25T18:18:59.753Z,7.68
2023-02-25T18:21:26.601Z,6.70
2023-02-25T18:23:53.462Z,5.78
2023-02-25T18:26:26.399Z,8.07
2023-02-25T18:28:57.275Z,5.05
2023-02-25T18:31:24.128Z,5.47
2023-02-25T18:33:50.869Z,4.10
2023-02-25T18:36:27.994Z,5.25
2023-02-25T18:39:00.062Z,9.43
2023-02-25T18:41:26.746Z,6.35
2023-02-25T18:43:54.489Z,5.80
2023-02-25T18:46:21.373Z,16.55
2023-02-25T18:48:48.195Z,9.27
2023-02-25T18:51:15.273Z,7.32
2023-02-25T18:53:42.196Z,10.48
2023-02-25T18:56:16.009Z,3.28
2023-02-25T18:58:42.866Z,7.35
2023-02-25T19:01:23.897Z,5.85
2023-02-25T19:03:51.362Z,11.60
2023-02-25T19:06:18.345Z,14.50
2023-02-25T19:08:45.103Z,21.85
2023-02-25T19:11:23.286Z,15.40
2023-02-25T19:13:50.392Z,17.23
2023-02-25T19:16:19.021Z,14.20
2023-02-25T19:18:49.437Z,14.40
2023-02-25T19:21:20.126Z,15.68
2023-02-25T19:23:48.388Z,11.05
2023-02-25T19:26:16.054Z,12.43
2023-02-25T19:28:42.779Z,7.03
2023-02-25T19:31:09.628Z,9.35
2023-02-25T19:33:36.404Z,7.13
2023-02-25T19:36:04.873Z,6.97
2023-02-25T19:38:31.554Z,7.85
2023-02-25T19:41:03.663Z,6.18
2023-02-25T19:43:31.732Z,10.18
2023-02-25T19:45:58.383Z,6.40
2023-02-25T19:48:25.225Z,4.25
2023-02-25T19:50:51.906Z,4.75
2023-02-25T19:53:19.104Z,4.70
2023-02-25T19:55:45.795Z,5.93
2023-02-25T19:58:12.409Z,5.05
2023-02-25T20:00:45.662Z,5.55
2023-02-25T20:03:13.118Z,9.27
2023-02-25T20:05:40.102Z,5.88
2023-02-25T20:08:06.934Z,5.38
2023-02-25T20:10:33.731Z,5.70
2023-02-25T20:13:00.376Z,6.05
2023-02-25T20:15:27.556Z,5.32
2023-02-25T20:17:55.544Z,5.10
2023-02-25T20:20:23.714Z,4.30
2023-02-25T20:22:50.615Z,5.22
2023-02-25T20:25:17.539Z,13.13
2023-02-25T20:27:44.534Z,10.02
2023-02-25T20:30:14.705Z,7.15
2023-02-25T20:32:46.040Z,9.00
2023-02-25T20:35:20.404Z,7.30
2023-02-25T20:38:13.137Z,15.27
2023-02-25T20:40:39.902Z,10.50
2023-02-25T20:43:06.730Z,8.27
2023-02-25T20:45:33.860Z,9.90
2023-02-25T20:48:00.594Z,8.98
2023-02-25T20:50:28.627Z,9.70
2023-02-25T20:52:55.851Z,8.10
2023-02-25T20:55:22.959Z,8.63
2023-02-25T20:57:51.168Z,5.53
2023-02-25T21:00:20.337Z,8.77
2023-02-25T21:02:47.056Z,6.68
2023-02-25T21:05:13.870Z,10.25
2023-02-25T21:07:40.524Z,7.95
2023-02-25T21:10:07.908Z,8.30
2023-02-25T21:12:34.576Z,5.47
2023-02-25T21:15:01.335Z,5.18
2023-02-25T21:17:27.951Z,5.47
2023-02-25T21:19:54.677Z,4.10
2023-02-25T21:22:21.930Z,9.80
2023-02-25T21:24:48.574Z,2.08
2023-02-25T21:27:15.281Z,5.47
2023-02-25T21:29:41.996Z,2.42
2023-02-25T21:32:08.764Z,2.78
2023-02-25T21:34:37.082Z,9.90
2023-02-25T21:37:03.743Z,4.07
2023-02-25T21:39:30.361Z,3.78
2023-02-25T21:41:57.067Z,3.25
2023-02-25T21:44:23.864Z,4.35
2023-02-25T21:46:50.556Z,3.55
2023-02-25T21:49:17.234Z,2.90
2023-02-25T21:51:44.037Z,3.35
2023-02-25T21:54:10.732Z,3.38
2023-02-25T21:56:37.475Z,2.42
2023-02-25T21:59:05.573Z,4.05
2023-02-25T22:01:38.704Z,2.10
2023-02-25T22:04:06.104Z,6.13
2023-02-25T22:06:33.600Z,4.47
2023-02-25T22:09:00.775Z,2.17
2023-02-25T22:11:32.963Z,3.88
2023-02-25T22:14:01.944Z,4.00
2023-02-25T22:16:29.511Z,10.80
2023-02-25T22:18:56.554Z,2.13
2023-02-25T22:21:28.678Z,2.83
2023-02-25T22:23:57.821Z,2.50
2023-02-25T22:26:30.321Z,3.50
2023-02-25T22:28:59.545Z,2.22
2023-02-25T22:31:27.341Z,2.80
2023-02-25T22:33:56.046Z,5.28
2023-02-25T22:36:23.341Z,4.60
2023-02-25T22:38:50.414Z,6.70
2023-02-25T22:41:23.191Z,1.70
2023-02-25T22:43:50.573Z,3.75
2023-02-25T22:46:20.462Z,8.48
2023-02-25T22:48:48.801Z,3.67
2023-02-25T22:51:27.362Z,3.67
2023-02-25T22:53:55.285Z,3.92
2023-02-25T22:56:23.160Z,3.80
2023-02-25T22:58:50.024Z,2.58
2023-02-25T23:01:19.363Z,2.03
2023-02-25T23:03:47.372Z,3.13
2023-02-25T23:06:16.214Z,4.07
2023-02-25T23:08:43.730Z,1.73
2023-02-25T23:11:26.884Z,3.50
2023-02-25T23:13:58.193Z,7.32
2023-02-25T23:16:28.912Z,4.10
2023-02-25T23:19:00.123Z,3.10
2023-02-25T23:21:28.001Z,1.95
2023-02-25T23:23:57.624Z,2.85
2023-02-25T23:26:33.308Z,5.45
2023-02-25T23:29:02.922Z,4.10
2023-02-25T23:31:32.759Z,2.15
2023-02-25T23:34:03.260Z,2.80
2023-02-25T23:36:30.184Z,3.45
2023-02-25T23:38:59.163Z,4.07
2023-02-25T23:41:26.613Z,1.38
2023-02-25T23:43:54.834Z,0.88
2023-02-25T23:46:23.001Z,8.43
2023-02-25T23:48:49.992Z,2.05
2023-02-25T23:51:16.890Z,4.60
2023-02-25T23:53:43.886Z,2.78
2023-02-25T23:56:12.851Z,4.45
2023-02-25T23:58:40.350Z,2.65
